sensor_id;sensor_type;location;lat;lon;timestamp;P1;durP1;ratioP1;P2;durP2;ratioP2
42132;SDS011;70517;48.192;16.278;2024-03-23T00:53:55;3.60;;;1.60;;
42132;SDS011;70517;48.192;16.278;2024-03-23T00:56:55;1.67;;;1.58;;
42132;SDS011;70517;48.192;16.278;2024-03-23T00:59:55;1.67;;;1.57;;
42132;SDS011;70517;48.192;16.278;2024-03-23T01:02:56;1.70;;;1.60;;
42132;SDS011;70517;48.192;16.278;2024-03-23T01:06:00;1.90;;;1.70;;
42132;SDS011;70517;48.192;16.278;2024-03-23T01:09:00;2.75;;;1.35;;
42132;SDS011;70517;48.192;16.278;2024-03-23T01:12:00;4.30;;;2.00;;
42132;SDS011;70517;48.192;16.278;2024-03-23T01:15:01;1.90;;;1.70;;
42132;SDS011;70517;48.192;16.278;2024-03-23T01:18:02;2.72;;;1.80;;
42132;SDS011;70517;48.192;16.278;2024-03-23T01:21:02;1.53;;;1.40;;
42132;SDS011;70517;48.192;16.278;2024-03-23T01:24:03;2.53;;;1.83;;
42132;SDS011;70517;48.192;16.278;2024-03-23T01:27:03;1.73;;;1.37;;
42132;SDS011;70517;48.192;16.278;2024-03-23T01:30:04;2.40;;;1.47;;
42132;SDS011;70517;48.192;16.278;2024-03-23T01:33:04;2.13;;;1.57;;
42132;SDS011;70517;48.192;16.278;2024-03-23T01:36:04;2.10;;;1.63;;
42132;SDS011;70517;48.192;16.278;2024-03-23T01:39:04;5.20;;;1.90;;
42132;SDS011;70517;48.192;16.278;2024-03-23T01:42:05;2.20;;;1.60;;
42132;SDS011;70517;48.192;16.278;2024-03-23T01:45:09;1.70;;;1.55;;
42132;SDS011;70517;48.192;16.278;2024-03-23T01:48:09;1.73;;;1.60;;
42132;SDS011;70517;48.192;16.278;2024-03-23T01:51:12;1.85;;;1.42;;
42132;SDS011;70517;48.192;16.278;2024-03-23T01:54:13;3.17;;;1.52;;
42132;SDS011;70517;48.192;16.278;2024-03-23T01:57:13;1.70;;;1.60;;
42132;SDS011;70517;48.192;16.278;2024-03-23T02:00:14;1.83;;;1.50;;
42132;SDS011;70517;48.192;16.278;2024-03-23T02:03:26;1.43;;;1.33;;
42132;SDS011;70517;48.192;16.278;2024-03-23T02:06:27;2.00;;;1.20;;
42132;SDS011;70517;48.192;16.278;2024-03-23T02:09:27;2.00;;;1.30;;
42132;SDS011;70517;48.192;16.278;2024-03-23T02:12:28;1.98;;;1.40;;
42132;SDS011;70517;48.192;16.278;2024-03-23T02:15:28;1.97;;;1.37;;
42132;SDS011;70517;48.192;16.278;2024-03-23T02:18:28;2.17;;;1.63;;
42132;SDS011;70517;48.192;16.278;2024-03-23T02:21:29;1.50;;;1.30;;
42132;SDS011;70517;48.192;16.278;2024-03-23T02:24:31;1.45;;;1.35;;
42132;SDS011;70517;48.192;16.278;2024-03-23T02:27:34;1.83;;;1.50;;
42132;SDS011;70517;48.192;16.278;2024-03-23T02:30:39;1.95;;;1.48;;
42132;SDS011;70517;48.192;16.278;2024-03-23T02:33:39;1.70;;;1.60;;
42132;SDS011;70517;48.192;16.278;2024-03-23T02:36:39;2.07;;;1.60;;
42132;SDS011;70517;48.192;16.278;2024-03-23T02:39:39;1.60;;;1.20;;
42132;SDS011;70517;48.192;16.278;2024-03-23T02:42:40;2.17;;;1.77;;
42132;SDS011;70517;48.192;16.278;2024-03-23T02:45:40;4.10;;;1.57;;
42132;SDS011;70517;48.192;16.278;2024-03-23T02:48:40;3.33;;;1.40;;
42132;SDS011;70517;48.192;16.278;2024-03-23T02:51:40;2.17;;;1.30;;
42132;SDS011;70517;48.192;16.278;2024-03-23T02:54:41;1.70;;;1.60;;
42132;SDS011;70517;48.192;16.278;2024-03-23T02:57:44;3.53;;;1.60;;
42132;SDS011;70517;48.192;16.278;2024-03-23T03:00:44;2.17;;;1.57;;
42132;SDS011;70517;48.192;16.278;2024-03-23T03:03:45;1.60;;;1.23;;
42132;SDS011;70517;48.192;16.278;2024-03-23T03:06:46;1.97;;;1.53;;
42132;SDS011;70517;48.192;16.278;2024-03-23T03:09:47;1.50;;;1.40;;
42132;SDS011;70517;48.192;16.278;2024-03-23T03:12:47;2.17;;;1.50;;
42132;SDS011;70517;48.192;16.278;2024-03-23T03:15:47;1.40;;;1.30;;
42132;SDS011;70517;48.192;16.278;2024-03-23T03:18:47;2.33;;;1.30;;
42132;SDS011;70517;48.192;16.278;2024-03-23T03:21:48;1.40;;;1.30;;
42132;SDS011;70517;48.192;16.278;2024-03-23T03:24:48;1.77;;;1.67;;
42132;SDS011;70517;48.192;16.278;2024-03-23T03:27:48;2.53;;;1.30;;
42132;SDS011;70517;48.192;16.278;2024-03-23T03:30:48;1.90;;;1.70;;
42132;SDS011;70517;48.192;16.278;2024-03-23T03:33:49;1.50;;;1.40;;
42132;SDS011;70517;48.192;16.278;2024-03-23T03:36:50;1.83;;;1.52;;
42132;SDS011;70517;48.192;16.278;2024-03-23T03:39:50;2.43;;;1.23;;
42132;SDS011;70517;48.192;16.278;2024-03-23T03:42:50;1.50;;;1.40;;
42132;SDS011;70517;48.192;16.278;2024-03-23T03:45:51;1.43;;;1.30;;
42132;SDS011;70517;48.192;16.278;2024-03-23T03:48:51;1.70;;;1.42;;
42132;SDS011;70517;48.192;16.278;2024-03-23T03:51:52;1.57;;;1.43;;
42132;SDS011;70517;48.192;16.278;2024-03-23T03:54:55;1.90;;;1.40;;
42132;SDS011;70517;48.192;16.278;2024-03-23T03:57:55;2.70;;;1.48;;
42132;SDS011;70517;48.192;16.278;2024-03-23T04:00:55;2.10;;;1.50;;
42132;SDS011;70517;48.192;16.278;2024-03-23T04:03:56;2.80;;;1.30;;
42132;SDS011;70517;48.192;16.278;2024-03-23T04:06:59;1.70;;;1.40;;
42132;SDS011;70517;48.192;16.278;2024-03-23T04:10:00;1.48;;;1.35;;
42132;SDS011;70517;48.192;16.278;2024-03-23T04:13:00;1.60;;;1.40;;
42132;SDS011;70517;48.192;16.278;2024-03-23T04:16:01;1.60;;;1.35;;
42132;SDS011;70517;48.192;16.278;2024-03-23T04:19:01;2.10;;;1.57;;
42132;SDS011;70517;48.192;16.278;2024-03-23T04:22:01;2.10;;;1.47;;
42132;SDS011;70517;48.192;16.278;2024-03-23T04:25:02;1.40;;;1.30;;
42132;SDS011;70517;48.192;16.278;2024-03-23T04:28:06;1.67;;;1.30;;
42132;SDS011;70517;48.192;16.278;2024-03-23T04:31:06;1.57;;;1.27;;
42132;SDS011;70517;48.192;16.278;2024-03-23T04:34:07;2.10;;;1.60;;
42132;SDS011;70517;48.192;16.278;2024-03-23T04:37:07;2.40;;;1.40;;
42132;SDS011;70517;48.192;16.278;2024-03-23T04:40:07;1.50;;;1.10;;
42132;SDS011;70517;48.192;16.278;2024-03-23T04:43:07;2.10;;;1.50;;
42132;SDS011;70517;48.192;16.278;2024-03-23T04:46:08;1.20;;;1.03;;
42132;SDS011;70517;48.192;16.278;2024-03-23T04:49:08;2.50;;;1.30;;
42132;SDS011;70517;48.192;16.278;2024-03-23T04:52:08;2.97;;;1.47;;
42132;SDS011;70517;48.192;16.278;2024-03-23T04:55:08;1.87;;;1.23;;
42132;SDS011;70517;48.192;16.278;2024-03-23T04:58:09;1.33;;;1.23;;
42132;SDS011;70517;48.192;16.278;2024-03-23T05:01:10;1.47;;;1.33;;
42132;SDS011;70517;48.192;16.278;2024-03-23T05:04:10;1.13;;;1.02;;
42132;SDS011;70517;48.192;16.278;2024-03-23T05:07:10;2.10;;;1.33;;
42132;SDS011;70517;48.192;16.278;2024-03-23T05:10:11;2.25;;;1.55;;
42132;SDS011;70517;48.192;16.278;2024-03-23T05:13:13;1.45;;;1.35;;
42132;SDS011;70517;48.192;16.278;2024-03-23T05:16:13;1.53;;;1.30;;
42132;SDS011;70517;48.192;16.278;2024-03-23T05:19:14;2.00;;;1.40;;
42132;SDS011;70517;48.192;16.278;2024-03-23T05:22:14;1.90;;;1.30;;
42132;SDS011;70517;48.192;16.278;2024-03-23T05:25:14;2.43;;;1.30;;
42132;SDS011;70517;48.192;16.278;2024-03-23T05:28:16;1.33;;;1.17;;
42132;SDS011;70517;48.192;16.278;2024-03-23T05:31:23;1.50;;;1.40;;
42132;SDS011;70517;48.192;16.278;2024-03-23T05:34:23;1.23;;;1.13;;
42132;SDS011;70517;48.192;16.278;2024-03-23T05:37:23;2.33;;;1.40;;
42132;SDS011;70517;48.192;16.278;2024-03-23T05:40:25;1.87;;;1.40;;
42132;SDS011;70517;48.192;16.278;2024-03-23T05:43:26;1.80;;;1.20;;
42132;SDS011;70517;48.192;16.278;2024-03-23T05:46:26;1.77;;;1.55;;
42132;SDS011;70517;48.192;16.278;2024-03-23T05:49:27;1.70;;;1.40;;
42132;SDS011;70517;48.192;16.278;2024-03-23T05:52:27;1.33;;;1.07;;
42132;SDS011;70517;48.192;16.278;2024-03-23T05:55:27;1.73;;;1.23;;
42132;SDS011;70517;48.192;16.278;2024-03-23T05:58:27;1.37;;;1.27;;
42132;SDS011;70517;48.192;16.278;2024-03-23T06:01:28;2.43;;;1.40;;
42132;SDS011;70517;48.192;16.278;2024-03-23T06:04:28;1.90;;;1.27;;
42132;SDS011;70517;48.192;16.278;2024-03-23T06:07:29;1.23;;;1.13;;
42132;SDS011;70517;48.192;16.278;2024-03-23T06:10:29;1.63;;;1.13;;
42132;SDS011;70517;48.192;16.278;2024-03-23T06:13:29;2.33;;;1.40;;
42132;SDS011;70517;48.192;16.278;2024-03-23T06:16:30;1.90;;;1.60;;
42132;SDS011;70517;48.192;16.278;2024-03-23T06:19:30;2.23;;;1.40;;
42132;SDS011;70517;48.192;16.278;2024-03-23T06:22:31;1.83;;;1.43;;
42132;SDS011;70517;48.192;16.278;2024-03-23T06:25:31;3.07;;;1.23;;
42132;SDS011;70517;48.192;16.278;2024-03-23T06:28:31;2.00;;;1.20;;
42132;SDS011;70517;48.192;16.278;2024-03-23T06:31:32;1.67;;;1.37;;
42132;SDS011;70517;48.192;16.278;2024-03-23T06:34:32;2.27;;;1.40;;
42132;SDS011;70517;48.192;16.278;2024-03-23T06:37:32;1.20;;;1.10;;
42132;SDS011;70517;48.192;16.278;2024-03-23T06:40:32;2.33;;;1.30;;
42132;SDS011;70517;48.192;16.278;2024-03-23T06:43:32;2.17;;;1.60;;
42132;SDS011;70517;48.192;16.278;2024-03-23T06:46:33;1.50;;;1.27;;
42132;SDS011;70517;48.192;16.278;2024-03-23T06:49:33;1.97;;;1.13;;
42132;SDS011;70517;48.192;16.278;2024-03-23T06:52:33;1.47;;;1.23;;
42132;SDS011;70517;48.192;16.278;2024-03-23T06:55:33;1.30;;;1.20;;
42132;SDS011;70517;48.192;16.278;2024-03-23T06:58:34;1.33;;;1.23;;
42132;SDS011;70517;48.192;16.278;2024-03-23T07:01:34;1.70;;;1.20;;
42132;SDS011;70517;48.192;16.278;2024-03-23T07:04:35;1.60;;;1.48;;
42132;SDS011;70517;48.192;16.278;2024-03-23T07:07:36;1.73;;;1.30;;
42132;SDS011;70517;48.192;16.278;2024-03-23T07:10:38;1.92;;;1.52;;
42132;SDS011;70517;48.192;16.278;2024-03-23T07:13:39;1.77;;;1.55;;
42132;SDS011;70517;48.192;16.278;2024-03-23T07:16:39;2.80;;;1.53;;
42132;SDS011;70517;48.192;16.278;2024-03-23T07:19:39;1.70;;;1.47;;
42132;SDS011;70517;48.192;16.278;2024-03-23T07:22:39;1.90;;;1.47;;
42132;SDS011;70517;48.192;16.278;2024-03-23T07:25:40;1.60;;;1.47;;
42132;SDS011;70517;48.192;16.278;2024-03-23T07:28:40;2.03;;;1.30;;
42132;SDS011;70517;48.192;16.278;2024-03-23T07:31:43;2.28;;;1.38;;
42132;SDS011;70517;48.192;16.278;2024-03-23T07:34:44;2.57;;;1.67;;
42132;SDS011;70517;48.192;16.278;2024-03-23T07:37:47;1.63;;;1.23;;
42132;SDS011;70517;48.192;16.278;2024-03-23T07:40:47;1.60;;;1.47;;
42132;SDS011;70517;48.192;16.278;2024-03-23T07:43:50;1.75;;;1.30;;
42132;SDS011;70517;48.192;16.278;2024-03-23T07:46:50;2.80;;;1.65;;
42132;SDS011;70517;48.192;16.278;2024-03-23T07:49:50;4.07;;;3.10;;
42132;SDS011;70517;48.192;16.278;2024-03-23T07:52:51;3.37;;;2.70;;
42132;SDS011;70517;48.192;16.278;2024-03-23T07:55:54;3.10;;;2.07;;
42132;SDS011;70517;48.192;16.278;2024-03-23T07:58:55;3.17;;;2.13;;
42132;SDS011;70517;48.192;16.278;2024-03-23T08:01:55;1.43;;;1.33;;
42132;SDS011;70517;48.192;16.278;2024-03-23T08:04:55;2.10;;;1.70;;
42132;SDS011;70517;48.192;16.278;2024-03-23T08:07:55;1.70;;;1.60;;
42132;SDS011;70517;48.192;16.278;2024-03-23T08:10:56;2.33;;;1.67;;
42132;SDS011;70517;48.192;16.278;2024-03-23T08:13:56;1.50;;;1.23;;
42132;SDS011;70517;48.192;16.278;2024-03-23T08:16:57;2.00;;;1.80;;
42132;SDS011;70517;48.192;16.278;2024-03-23T08:19:57;1.80;;;1.50;;
42132;SDS011;70517;48.192;16.278;2024-03-23T08:22:57;3.27;;;1.50;;
42132;SDS011;70517;48.192;16.278;2024-03-23T08:25:58;1.50;;;1.33;;
42132;SDS011;70517;48.192;16.278;2024-03-23T08:28:58;2.17;;;1.67;;
42132;SDS011;70517;48.192;16.278;2024-03-23T08:31:59;3.57;;;2.03;;
42132;SDS011;70517;48.192;16.278;2024-03-23T08:35:00;2.13;;;1.75;;
42132;SDS011;70517;48.192;16.278;2024-03-23T08:38:01;1.73;;;1.63;;
42132;SDS011;70517;48.192;16.278;2024-03-23T08:41:05;1.90;;;1.80;;
42132;SDS011;70517;48.192;16.278;2024-03-23T08:44:05;1.85;;;1.75;;
42132;SDS011;70517;48.192;16.278;2024-03-23T08:47:06;2.87;;;2.00;;
42132;SDS011;70517;48.192;16.278;2024-03-23T08:50:06;2.10;;;1.90;;
42132;SDS011;70517;48.192;16.278;2024-03-23T08:53:06;2.17;;;1.97;;
42132;SDS011;70517;48.192;16.278;2024-03-23T08:56:07;2.63;;;2.13;;
42132;SDS011;70517;48.192;16.278;2024-03-23T08:59:07;2.70;;;2.17;;
42132;SDS011;70517;48.192;16.278;2024-03-23T09:02:07;2.13;;;1.93;;
42132;SDS011;70517;48.192;16.278;2024-03-23T09:05:08;2.33;;;2.13;;
42132;SDS011;70517;48.192;16.278;2024-03-23T09:08:08;2.53;;;2.20;;
42132;SDS011;70517;48.192;16.278;2024-03-23T09:11:09;2.67;;;2.03;;
42132;SDS011;70517;48.192;16.278;2024-03-23T09:14:10;1.83;;;1.70;;
42132;SDS011;70517;48.192;16.278;2024-03-23T09:17:10;1.83;;;1.70;;
42132;SDS011;70517;48.192;16.278;2024-03-23T09:20:11;2.30;;;1.60;;
42132;SDS011;70517;48.192;16.278;2024-03-23T09:23:11;1.40;;;1.30;;
42132;SDS011;70517;48.192;16.278;2024-03-23T09:26:11;1.80;;;1.57;;
42132;SDS011;70517;48.192;16.278;2024-03-23T09:29:11;1.97;;;1.33;;
42132;SDS011;70517;48.192;16.278;2024-03-23T09:32:12;1.70;;;1.17;;
42132;SDS011;70517;48.192;16.278;2024-03-23T09:35:12;1.40;;;1.30;;
42132;SDS011;70517;48.192;16.278;2024-03-23T09:38:12;1.57;;;1.47;;
42132;SDS011;70517;48.192;16.278;2024-03-23T09:41:12;3.23;;;1.17;;
42132;SDS011;70517;48.192;16.278;2024-03-23T09:44:14;1.33;;;1.02;;
42132;SDS011;70517;48.192;16.278;2024-03-23T09:47:14;1.35;;;1.25;;
42132;SDS011;70517;48.192;16.278;2024-03-23T09:53:15;1.15;;;0.82;;
42132;SDS011;70517;48.192;16.278;2024-03-23T09:56:15;0.82;;;0.75;;
42132;SDS011;70517;48.192;16.278;2024-03-23T09:59:17;1.17;;;0.95;;
42132;SDS011;70517;48.192;16.278;2024-03-23T10:05:21;1.17;;;0.77;;
42132;SDS011;70517;48.192;16.278;2024-03-23T10:08:22;1.05;;;0.77;;
42132;SDS011;70517;48.192;16.278;2024-03-23T10:14:31;1.17;;;0.80;;
42132;SDS011;70517;48.192;16.278;2024-03-23T10:17:31;0.95;;;0.70;;
42132;SDS011;70517;48.192;16.278;2024-03-23T10:23:35;1.30;;;0.70;;
42132;SDS011;70517;48.192;16.278;2024-03-23T10:26:36;1.00;;;0.57;;
42132;SDS011;70517;48.192;16.278;2024-03-23T10:32:37;0.60;;;0.60;;
42132;SDS011;70517;48.192;16.278;2024-03-23T10:35:37;0.80;;;0.60;;
42132;SDS011;70517;48.192;16.278;2024-03-23T10:38:39;0.82;;;0.63;;
42132;SDS011;70517;48.192;16.278;2024-03-23T10:41:40;0.80;;;0.50;;
42132;SDS011;70517;48.192;16.278;2024-03-23T10:47:41;0.85;;;0.40;;
42132;SDS011;70517;48.192;16.278;2024-03-23T10:50:42;0.73;;;0.50;;
42132;SDS011;70517;48.192;16.278;2024-03-23T10:53:42;0.50;;;0.50;;
42132;SDS011;70517;48.192;16.278;2024-03-23T10:56:44;0.60;;;0.50;;
42132;SDS011;70517;48.192;16.278;2024-03-23T10:59:45;0.60;;;0.50;;
42132;SDS011;70517;48.192;16.278;2024-03-23T11:02:45;1.02;;;0.40;;
42132;SDS011;70517;48.192;16.278;2024-03-23T11:05:46;0.87;;;0.50;;
42132;SDS011;70517;48.192;16.278;2024-03-23T11:08:46;2.40;;;0.60;;
42132;SDS011;70517;48.192;16.278;2024-03-23T11:11:46;1.03;;;0.50;;
42132;SDS011;70517;48.192;16.278;2024-03-23T11:14:47;0.80;;;0.40;;
42132;SDS011;70517;48.192;16.278;2024-03-23T11:18:22;0.50;;;0.47;;
42132;SDS011;70517;48.192;16.278;2024-03-23T11:21:57;1.08;;;0.50;;
42132;SDS011;70517;48.192;16.278;2024-03-23T11:24:39;1.38;;;0.65;;
42132;SDS011;70517;48.192;16.278;2024-03-23T11:27:39;0.52;;;0.47;;
42132;SDS011;70517;48.192;16.278;2024-03-23T11:30:40;1.58;;;0.52;;
42132;SDS011;70517;48.192;16.278;2024-03-23T11:33:40;0.50;;;0.50;;
42132;SDS011;70517;48.192;16.278;2024-03-23T11:36:40;0.80;;;0.60;;
42132;SDS011;70517;48.192;16.278;2024-03-23T11:39:41;1.20;;;0.40;;
42132;SDS011;70517;48.192;16.278;2024-03-23T11:42:41;1.00;;;0.60;;
42132;SDS011;70517;48.192;16.278;2024-03-23T11:45:45;1.50;;;0.88;;
42132;SDS011;70517;48.192;16.278;2024-03-23T11:48:49;1.10;;;0.93;;
42132;SDS011;70517;48.192;16.278;2024-03-23T11:51:49;0.73;;;0.73;;
42132;SDS011;70517;48.192;16.278;2024-03-23T11:54:50;1.10;;;0.60;;
42132;SDS011;70517;48.192;16.278;2024-03-23T11:57:50;0.80;;;0.77;;
42132;SDS011;70517;48.192;16.278;2024-03-23T12:00:51;0.90;;;0.50;;
42132;SDS011;70517;48.192;16.278;2024-03-23T12:03:54;1.40;;;0.90;;
42132;SDS011;70517;48.192;16.278;2024-03-23T12:10:10;1.40;;;1.20;;
42132;SDS011;70517;48.192;16.278;2024-03-23T12:13:10;1.00;;;0.80;;
42132;SDS011;70517;48.192;16.278;2024-03-23T12:19:11;0.98;;;0.70;;
42132;SDS011;70517;48.192;16.278;2024-03-23T12:22:11;0.80;;;0.63;;
42132;SDS011;70517;48.192;16.278;2024-03-23T12:25:11;1.35;;;0.60;;
42132;SDS011;70517;48.192;16.278;2024-03-23T12:28:11;0.70;;;0.60;;
42132;SDS011;70517;48.192;16.278;2024-03-23T12:31:12;0.50;;;0.50;;
42132;SDS011;70517;48.192;16.278;2024-03-23T12:34:12;0.63;;;0.60;;
42132;SDS011;70517;48.192;16.278;2024-03-23T12:37:12;1.53;;;0.67;;
42132;SDS011;70517;48.192;16.278;2024-03-23T12:40:12;0.93;;;0.70;;
42132;SDS011;70517;48.192;16.278;2024-03-23T12:43:13;0.60;;;0.60;;
42132;SDS011;70517;48.192;16.278;2024-03-23T12:46:13;0.60;;;0.60;;
42132;SDS011;70517;48.192;16.278;2024-03-23T12:49:13;2.30;;;0.70;;
42132;SDS011;70517;48.192;16.278;2024-03-23T12:52:14;0.45;;;0.45;;
42132;SDS011;70517;48.192;16.278;2024-03-23T12:55:14;1.07;;;0.60;;
42132;SDS011;70517;48.192;16.278;2024-03-23T12:58:14;0.70;;;0.50;;
42132;SDS011;70517;48.192;16.278;2024-03-23T13:01:15;0.50;;;0.50;;
42132;SDS011;70517;48.192;16.278;2024-03-23T13:04:15;0.50;;;0.40;;
42132;SDS011;70517;48.192;16.278;2024-03-23T13:07:16;1.27;;;0.40;;
42132;SDS011;70517;48.192;16.278;2024-03-23T13:10:17;0.90;;;0.30;;
42132;SDS011;70517;48.192;16.278;2024-03-23T13:13:17;0.30;;;0.30;;
42132;SDS011;70517;48.192;16.278;2024-03-23T13:16:17;0.30;;;0.20;;
42132;SDS011;70517;48.192;16.278;2024-03-23T13:22:18;0.20;;;0.20;;
42132;SDS011;70517;48.192;16.278;2024-03-23T13:28:19;0.20;;;0.20;;
42132;SDS011;70517;48.192;16.278;2024-03-23T13:34:19;0.13;;;0.13;;
42132;SDS011;70517;48.192;16.278;2024-03-23T13:40:20;0.20;;;0.20;;
42132;SDS011;70517;48.192;16.278;2024-03-23T13:46:20;2.08;;;1.38;;
42132;SDS011;70517;48.192;16.278;2024-03-23T13:52:21;0.95;;;0.70;;
42132;SDS011;70517;48.192;16.278;2024-03-23T13:55:25;0.47;;;0.40;;
42132;SDS011;70517;48.192;16.278;2024-03-23T13:58:25;0.30;;;0.30;;
42132;SDS011;70517;48.192;16.278;2024-03-23T14:04:26;0.20;;;0.20;;
42132;SDS011;70517;48.192;16.278;2024-03-23T14:07:26;0.20;;;0.20;;
42132;SDS011;70517;48.192;16.278;2024-03-23T14:13:27;0.85;;;0.20;;
42132;SDS011;70517;48.192;16.278;2024-03-23T14:16:27;0.98;;;0.20;;
42132;SDS011;70517;48.192;16.278;2024-03-23T14:19:28;0.70;;;0.50;;
42132;SDS011;70517;48.192;16.278;2024-03-23T14:22:28;1.00;;;0.70;;
42132;SDS011;70517;48.192;16.278;2024-03-23T14:25:28;0.97;;;0.47;;
42132;SDS011;70517;48.192;16.278;2024-03-23T14:28:30;0.32;;;0.32;;
42132;SDS011;70517;48.192;16.278;2024-03-23T14:31:30;0.30;;;0.30;;
42132;SDS011;70517;48.192;16.278;2024-03-23T14:34:30;0.63;;;0.30;;
42132;SDS011;70517;48.192;16.278;2024-03-23T14:37:31;0.30;;;0.30;;
42132;SDS011;70517;48.192;16.278;2024-03-23T14:40:31;0.17;;;0.17;;
42132;SDS011;70517;48.192;16.278;2024-03-23T14:43:31;0.40;;;0.30;;
42132;SDS011;70517;48.192;16.278;2024-03-23T14:46:32;0.43;;;0.30;;
42132;SDS011;70517;48.192;16.278;2024-03-23T14:52:33;0.20;;;0.20;;
42132;SDS011;70517;48.192;16.278;2024-03-23T14:55:34;0.20;;;0.20;;
42132;SDS011;70517;48.192;16.278;2024-03-23T14:58:34;0.30;;;0.25;;
42132;SDS011;70517;48.192;16.278;2024-03-23T15:01:35;0.73;;;0.40;;
42132;SDS011;70517;48.192;16.278;2024-03-23T15:04:35;0.20;;;0.20;;
42132;SDS011;70517;48.192;16.278;2024-03-23T15:07:36;0.32;;;0.30;;
42132;SDS011;70517;48.192;16.278;2024-03-23T15:10:38;0.20;;;0.20;;
42132;SDS011;70517;48.192;16.278;2024-03-23T15:13:39;0.52;;;0.40;;
42132;SDS011;70517;48.192;16.278;2024-03-23T15:16:39;0.20;;;0.20;;
42132;SDS011;70517;48.192;16.278;2024-03-23T15:19:42;0.20;;;0.20;;
42132;SDS011;70517;48.192;16.278;2024-03-23T15:22:42;0.20;;;0.20;;
42132;SDS011;70517;48.192;16.278;2024-03-23T15:25:42;0.20;;;0.20;;
42132;SDS011;70517;48.192;16.278;2024-03-23T15:28:42;0.10;;;0.10;;
42132;SDS011;70517;48.192;16.278;2024-03-23T15:31:58;0.20;;;0.20;;
42132;SDS011;70517;48.192;16.278;2024-03-23T15:34:58;0.37;;;0.30;;
42132;SDS011;70517;48.192;16.278;2024-03-23T15:37:59;0.20;;;0.20;;
42132;SDS011;70517;48.192;16.278;2024-03-23T15:40:59;0.60;;;0.10;;
42132;SDS011;70517;48.192;16.278;2024-03-23T15:43:59;0.27;;;0.27;;
42132;SDS011;70517;48.192;16.278;2024-03-23T15:47:00;0.20;;;0.20;;
42132;SDS011;70517;48.192;16.278;2024-03-23T15:50:00;0.40;;;0.20;;
42132;SDS011;70517;48.192;16.278;2024-03-23T15:53:00;0.50;;;0.10;;
42132;SDS011;70517;48.192;16.278;2024-03-23T15:56:02;0.20;;;0.20;;
42132;SDS011;70517;48.192;16.278;2024-03-23T15:59:02;0.13;;;0.13;;
42132;SDS011;70517;48.192;16.278;2024-03-23T16:02:06;0.75;;;0.35;;
42132;SDS011;70517;48.192;16.278;2024-03-23T16:05:06;0.20;;;0.20;;
42132;SDS011;70517;48.192;16.278;2024-03-23T16:08:11;0.35;;;0.20;;
42132;SDS011;70517;48.192;16.278;2024-03-23T16:11:11;0.33;;;0.20;;
42132;SDS011;70517;48.192;16.278;2024-03-23T16:14:11;0.20;;;0.20;;
42132;SDS011;70517;48.192;16.278;2024-03-23T16:17:11;0.10;;;0.10;;
42132;SDS011;70517;48.192;16.278;2024-03-23T16:20:12;0.33;;;0.33;;
42132;SDS011;70517;48.192;16.278;2024-03-23T16:23:12;0.98;;;0.60;;
42132;SDS011;70517;48.192;16.278;2024-03-23T16:26:13;0.50;;;0.40;;
42132;SDS011;70517;48.192;16.278;2024-03-23T16:29:16;0.70;;;0.20;;
42132;SDS011;70517;48.192;16.278;2024-03-23T16:32:16;0.27;;;0.20;;
42132;SDS011;70517;48.192;16.278;2024-03-23T16:35:17;0.20;;;0.20;;
42132;SDS011;70517;48.192;16.278;2024-03-23T16:38:17;0.20;;;0.20;;
42132;SDS011;70517;48.192;16.278;2024-03-23T16:41:17;0.20;;;0.20;;
42132;SDS011;70517;48.192;16.278;2024-03-23T16:44:17;0.20;;;0.20;;
42132;SDS011;70517;48.192;16.278;2024-03-23T16:47:18;0.47;;;0.33;;
42132;SDS011;70517;48.192;16.278;2024-03-23T16:50:18;0.40;;;0.30;;
42132;SDS011;70517;48.192;16.278;2024-03-23T16:53:19;0.23;;;0.23;;
42132;SDS011;70517;48.192;16.278;2024-03-23T16:56:19;0.20;;;0.20;;
42132;SDS011;70517;48.192;16.278;2024-03-23T16:59:19;0.10;;;0.10;;
42132;SDS011;70517;48.192;16.278;2024-03-23T17:02:20;0.20;;;0.20;;
42132;SDS011;70517;48.192;16.278;2024-03-23T17:05:20;0.40;;;0.30;;
42132;SDS011;70517;48.192;16.278;2024-03-23T17:08:22;0.20;;;0.20;;
42132;SDS011;70517;48.192;16.278;2024-03-23T17:11:23;0.30;;;0.20;;
42132;SDS011;70517;48.192;16.278;2024-03-23T17:14:23;0.10;;;0.10;;
42132;SDS011;70517;48.192;16.278;2024-03-23T17:17:24;0.52;;;0.30;;
42132;SDS011;70517;48.192;16.278;2024-03-23T17:20:26;0.20;;;0.20;;
42132;SDS011;70517;48.192;16.278;2024-03-23T17:23:27;0.20;;;0.20;;
42132;SDS011;70517;48.192;16.278;2024-03-23T17:26:28;0.20;;;0.20;;
42132;SDS011;70517;48.192;16.278;2024-03-23T17:29:28;0.20;;;0.20;;
42132;SDS011;70517;48.192;16.278;2024-03-23T17:32:28;0.30;;;0.30;;
42132;SDS011;70517;48.192;16.278;2024-03-23T17:35:28;0.40;;;0.20;;
42132;SDS011;70517;48.192;16.278;2024-03-23T17:38:30;0.55;;;0.20;;
42132;SDS011;70517;48.192;16.278;2024-03-23T17:41:30;0.73;;;0.23;;
42132;SDS011;70517;48.192;16.278;2024-03-23T17:44:30;0.73;;;0.33;;
42132;SDS011;70517;48.192;16.278;2024-03-23T17:47:37;0.40;;;0.30;;
42132;SDS011;70517;48.192;16.278;2024-03-23T17:50:38;0.20;;;0.20;;
42132;SDS011;70517;48.192;16.278;2024-03-23T17:53:38;0.53;;;0.20;;
42132;SDS011;70517;48.192;16.278;2024-03-23T17:56:39;0.20;;;0.20;;
42132;SDS011;70517;48.192;16.278;2024-03-23T17:59:39;0.10;;;0.10;;
42132;SDS011;70517;48.192;16.278;2024-03-23T18:02:39;1.00;;;0.30;;
42132;SDS011;70517;48.192;16.278;2024-03-23T18:05:39;0.20;;;0.20;;
42132;SDS011;70517;48.192;16.278;2024-03-23T18:08:41;0.30;;;0.30;;
42132;SDS011;70517;48.192;16.278;2024-03-23T18:11:41;0.30;;;0.30;;
42132;SDS011;70517;48.192;16.278;2024-03-23T18:14:41;0.50;;;0.20;;
42132;SDS011;70517;48.192;16.278;2024-03-23T18:17:41;0.30;;;0.20;;
42132;SDS011;70517;48.192;16.278;2024-03-23T18:20:42;0.30;;;0.30;;
42132;SDS011;70517;48.192;16.278;2024-03-23T18:23:47;0.77;;;0.30;;
42132;SDS011;70517;48.192;16.278;2024-03-23T18:26:48;1.08;;;0.47;;
42132;SDS011;70517;48.192;16.278;2024-03-23T18:32:49;0.30;;;0.30;;
42132;SDS011;70517;48.192;16.278;2024-03-23T18:35:50;0.70;;;0.60;;
42132;SDS011;70517;48.192;16.278;2024-03-23T18:38:50;2.47;;;0.80;;
42132;SDS011;70517;48.192;16.278;2024-03-23T18:41:50;0.90;;;0.80;;
42132;SDS011;70517;48.192;16.278;2024-03-23T18:44:50;0.90;;;0.60;;
42132;SDS011;70517;48.192;16.278;2024-03-23T18:47:51;0.80;;;0.50;;
42132;SDS011;70517;48.192;16.278;2024-03-23T18:50:51;0.60;;;0.50;;
42132;SDS011;70517;48.192;16.278;2024-03-23T18:53:52;0.60;;;0.40;;
42132;SDS011;70517;48.192;16.278;2024-03-23T18:56:52;0.80;;;0.50;;
42132;SDS011;70517;48.192;16.278;2024-03-23T18:59:53;0.57;;;0.30;;
42132;SDS011;70517;48.192;16.278;2024-03-23T19:02:53;0.50;;;0.50;;
42132;SDS011;70517;48.192;16.278;2024-03-23T19:05:57;0.43;;;0.30;;
42132;SDS011;70517;48.192;16.278;2024-03-23T19:08:57;0.40;;;0.40;;
42132;SDS011;70517;48.192;16.278;2024-03-23T19:11:57;0.40;;;0.40;;
42132;SDS011;70517;48.192;16.278;2024-03-23T19:14:58;0.30;;;0.30;;
42132;SDS011;70517;48.192;16.278;2024-03-23T19:17:58;0.40;;;0.30;;
42132;SDS011;70517;48.192;16.278;2024-03-23T19:20:58;0.40;;;0.30;;
42132;SDS011;70517;48.192;16.278;2024-03-23T19:23:59;0.45;;;0.40;;
42132;SDS011;70517;48.192;16.278;2024-03-23T19:26:59;0.30;;;0.30;;
42132;SDS011;70517;48.192;16.278;2024-03-23T19:29:59;0.33;;;0.33;;
42132;SDS011;70517;48.192;16.278;2024-03-23T19:32:59;0.27;;;0.23;;
42132;SDS011;70517;48.192;16.278;2024-03-23T19:36:00;0.50;;;0.37;;
42132;SDS011;70517;48.192;16.278;2024-03-23T19:39:00;0.60;;;0.43;;